Contact.

Fly & Fun

Aérodrome de Reims-Prunay

51360 Prunay

Hangar : 03 26 61 05 94

Réservations : 06 73 72 56 28

contact@flyandfun.fr



    Ici la base.

    Implantée sur l’aérodrome de Reims-Prunay, Fly&Fun et ses membres profitent de la région champenoise pour voler dans un cadre exceptionnel et partager cette ferveur commune autour de l’aéronautique.

    ouvrir google map

    Social Wall.

    Suivez-nous sur les réseaux sociaux comme Facebook et Instagram pour découvrir des actualités inédites !

    Facebook.
    Comments Box SVG iconsUsed for the like, share, comment, and reaction icons

    Et ça vole, encore et toujours 😃😎😍….! ... See MoreSee Less

    Comment on Facebook

    Et c est parti !

    Bravo Sandrine 👍

    😍😍😍

    Today a very friendly Swedish TV team for an adrenaline experience 👍😎🇸🇪 ... See MoreSee Less

    Today a very friendly Swedish TV team for an adrenaline experience 👍😎🇸🇪Image attachment

    Comment on Facebook

    C’est plus un L.39 Albatros qui faut mais un Transal 😂

    METAR :

    LFQA 070000Z AUTO 29006KT 250V320 CAVOK 16/13 Q1024


    vue en direct sur l'aérodrome
    mentions légales politique de confidentialité
    Cochet Concept
    cx